Time;durP1;ratioP1;P1;durP2;ratioP2;P2;SDS_P1;SDS_P2;PMS_P1;PMS_P2;Temp;Humidity;BMP_temperature;BMP_pressure;BME280_temperature;BME280_humidity;BME280_pressure;Samples;Min_cycle;Max_cycle;Signal;HPM_P1;HPM_P2
2022/08/24 00:01:13;;;;;;;52.70;27.60;;;;;;;19.25;83.68;98912.66;87943;1284;25337;-77
2022/08/24 00:03:17;;;;;;;46.80;27.10;;;;;;;19.24;83.79;98910.91;88037;1283;22546;-76
2022/08/24 00:05:24;;;;;;;48.80;27.50;;;;;;;19.23;83.74;98907.76;87979;1284;22580;-76
2022/08/24 00:07:45;;;;;;;;;;;;;;;;;;;;;
2022/08/24 00:09:48;;;;;;;46.40;27.30;;;;;;;19.23;83.81;98904.04;88043;1282;22580;-75
2022/08/24 00:12:13;;;;;;;45.20;25.70;;;;;;;19.22;83.85;98909.80;87826;1284;22973;-77
2022/08/24 00:14:58;;;;;;;;;;;;;;;;;;;;;
2022/08/24 00:17:05;;;;;;;47.60;26.40;;;;;;;19.20;83.92;98906.58;88149;1281;22529;-76
2022/08/24 00:19:17;;;;;;;55.90;27.50;;;;;;;19.20;83.98;98902.52;88187;1282;22683;-76
2022/08/24 00:21:24;;;;;;;45.80;26.60;;;;;;;19.20;83.93;98904.25;88149;1281;24935;-77
2022/08/24 00:23:27;;;;;;;56.70;28.30;;;;;;;19.21;83.96;98906.20;88140;1281;26704;-76
2022/08/24 00:25:40;;;;;;;54.20;27.90;;;;;;;19.20;83.92;98906.26;88233;1275;22689;-76
2022/08/24 00:27:49;;;;;;;49.40;26.60;;;;;;;19.21;84.00;98900.83;88946;1271;24177;-76
2022/08/24 00:29:54;;;;;;;47.30;25.50;;;;;;;19.20;84.00;98902.73;88889;1273;22562;-77
2022/08/24 00:31:56;;;;;;;55.90;26.20;;;;;;;19.20;83.95;98912.09;88918;1271;23176;-76
2022/08/24 00:34:01;;;;;;;48.20;25.70;;;;;;;19.20;83.97;98915.29;88937;1271;22546;-76
2022/08/24 00:36:04;;;;;;;43.10;26.10;;;;;;;19.21;84.06;98916.13;88880;1270;22832;-76
2022/08/24 00:38:27;;;;;;;47.50;27.90;;;;;;;19.21;83.96;98911.85;88882;1274;24072;-77
2022/08/24 00:40:33;;;;;;;52.90;27.50;;;;;;;19.21;84.08;98910.92;88864;1272;25405;-76
2022/08/24 00:42:39;;;;;;;46.80;28.10;;;;;;;19.23;84.07;98915.08;88817;1274;25651;-76
2022/08/24 00:44:48;;;;;;;54.10;29.20;;;;;;;19.23;84.02;98920.44;88981;1271;23076;-76
2022/08/24 00:48:04;;;;;;;49.00;29.20;;;;;;;19.23;84.09;98923.83;88750;1273;22795;-76
2022/08/24 00:51:01;;;;;;;57.10;30.10;;;;;;;19.23;84.10;98924.15;88275;1282;22512;-77
2022/08/24 00:53:30;;;;;;;54.40;30.30;;;;;;;19.25;84.10;98922.82;87949;1285;23405;-76
2022/08/24 00:56:05;;;;;;;;;;;;;;;;;;;;;
2022/08/24 00:58:40;;;;;;;58.40;28.30;;;;;;;19.24;84.11;98930.67;88028;1284;22732;-77
2022/08/24 01:00:52;;;;;;;54.30;28.90;;;;;;;19.23;84.24;98939.64;87827;1285;22656;-77
2022/08/24 01:03:03;;;;;;;54.20;30.20;;;;;;;19.23;84.19;98943.55;87964;1285;22804;-76
2022/08/24 01:05:08;;;;;;;54.50;29.90;;;;;;;19.24;84.17;98944.40;87894;1285;22679;-76
2022/08/24 01:07:14;;;;;;;60.40;29.70;;;;;;;19.26;84.24;98949.09;88072;1285;22904;-77
2022/08/24 01:09:39;;;;;;;50.10;27.10;;;;;;;19.26;84.20;98952.25;87878;1285;22697;-77
2022/08/24 01:12:00;;;;;;;55.30;27.40;;;;;;;19.27;84.22;98956.63;87963;1282;22807;-77
2022/08/24 01:14:35;;;;;;;52.10;26.90;;;;;;;19.28;84.24;98958.69;87841;1285;23252;-77
2022/08/24 01:19:03;;;;;;;42.30;25.10;;;;;;;19.31;84.20;98954.70;87880;1285;23317;-77
2022/08/24 01:21:46;;;;;;;;;;;;;;;;;;;;;
2022/08/24 01:24:00;;;;;;;47.30;23.50;;;;;;;19.29;84.17;98945.94;87757;1285;24971;-76
2022/08/24 01:26:22;;;;;;;36.90;22.00;;;;;;;19.28;84.19;98947.30;87532;1282;22613;-77
2022/08/24 01:28:29;;;;;;;40.00;21.20;;;;;;;19.26;84.22;98950.64;88476;1272;22556;-77
2022/08/24 01:31:16;;;;;;;32.50;20.20;;;;;;;19.26;84.27;98949.96;88616;1270;22761;-76
2022/08/24 01:33:25;;;;;;;34.40;20.10;;;;;;;19.19;84.29;98942.52;88620;1273;23714;-75
2022/08/24 01:35:29;;;;;;;35.60;19.30;;;;;;;19.23;84.22;98953.56;88569;1274;23451;-76
2022/08/24 01:38:06;;;;;;;31.30;19.40;;;;;;;19.22;84.28;98956.64;88755;1270;23729;-76
2022/08/24 01:40:41;;;;;;;43.20;21.10;;;;;;;19.22;84.28;98960.23;88655;1270;22706;-76
2022/08/24 01:43:01;;;;;;;36.50;20.30;;;;;;;19.21;84.25;98960.48;88546;1271;22575;-75
2022/08/24 01:46:12;;;;;;;41.80;22.50;;;;;;;19.20;84.27;98961.49;88760;1270;22742;-77
2022/08/24 01:48:23;;;;;;;32.30;20.40;;;;;;;19.21;84.40;98965.33;87846;1285;24271;-77
2022/08/24 01:51:12;;;;;;;38.70;20.90;;;;;;;19.21;84.31;98966.50;87831;1282;25332;-77
2022/08/24 01:53:54;;;;;;;34.90;20.30;;;;;;;19.21;84.41;98967.79;87888;1283;22659;-77
2022/08/24 01:56:37;;;;;;;32.90;21.60;;;;;;;19.22;84.44;98977.14;87784;1284;22581;-76
2022/08/24 01:59:11;;;;;;;33.40;20.70;;;;;;;19.23;84.50;98976.21;87863;1283;22637;-75
2022/08/24 02:01:45;;;;;;;37.80;21.50;;;;;;;19.22;84.44;98974.61;87842;1284;22786;-76
2022/08/24 02:06:58;;;;;;;33.80;21.40;;;;;;;19.23;84.47;98976.02;87950;1282;24259;-76
2022/08/24 02:09:37;;;;;;;45.80;22.10;;;;;;;19.22;84.50;98968.02;87900;1283;22644;-76
2022/08/24 02:12:30;;;;;;;;;;;;;;;;;;;;;
2022/08/24 02:14:46;;;;;;;41.10;23.10;;;;;;;19.21;84.57;98975.09;87881;1282;22788;-76
2022/08/24 02:16:48;;;;;;;42.30;22.10;;;;;;;19.21;84.47;98972.99;87995;1282;23028;-77
2022/08/24 02:19:13;;;;;;;41.00;21.90;;;;;;;19.20;84.65;98975.00;87610;1285;24182;-76
2022/08/24 02:21:23;;;;;;;45.00;23.20;;;;;;;19.19;84.49;98982.36;87384;1288;22611;-76
2022/08/24 02:23:27;;;;;;;42.70;23.60;;;;;;;19.19;84.65;98986.13;87228;1294;22580;-76
2022/08/24 02:25:30;;;;;;;37.90;23.50;;;;;;;19.18;84.61;98988.38;87710;1281;22649;-76
2022/08/24 02:27:59;;;;;;;41.20;25.00;;;;;;;19.18;84.74;98989.63;88200;1278;22613;-76
2022/08/24 02:30:17;;;;;;;;;;;;;;;;;;;;;
2022/08/24 02:33:02;;;;;;;45.50;22.60;;;;;;;19.17;84.77;98991.67;87791;1284;22871;-77
2022/08/24 02:35:50;;;;;;;49.50;22.90;;;;;;;19.16;84.80;98997.80;87548;1286;25322;-76
2022/08/24 02:38:00;;;;;;;48.60;25.30;;;;;;;19.16;84.77;98996.88;87962;1284;22614;-76
2022/08/24 02:40:09;;;;;;;41.50;22.70;;;;;;;19.16;84.86;98990.63;87872;1284;22806;-77
2022/08/24 02:42:11;;;;;;;47.90;26.20;;;;;;;19.14;84.89;98988.51;87838;1287;23481;-76
2022/08/24 02:44:23;;;;;;;;;;;;;;;;;;;;;
2022/08/24 02:47:16;;;;;;;;;;;;;;;;;;;;;
2022/08/24 02:49:44;;;;;;;40.40;24.20;;;;;;;19.12;85.00;98983.34;87075;1294;22610;-76
2022/08/24 02:51:56;;;;;;;45.60;22.40;;;;;;;19.12;85.09;98986.19;87087;1294;22670;-76
2022/08/24 02:54:51;;;;;;;;;;;;;;;;;;;;;
2022/08/24 02:58:02;;;;;;;39.30;23.90;;;;;;;19.12;85.03;98997.96;87333;1291;23331;-76
2022/08/24 03:00:53;;;;;;;35.80;21.40;;;;;;;19.13;85.23;98998.92;87810;1284;22612;-77
2022/08/24 03:03:25;;;;;;;;;;;;;;;;;;;;;
2022/08/24 03:05:58;;;;;;;35.90;21.40;;;;;;;19.13;85.21;99000.69;87870;1284;22738;-76
2022/08/24 03:09:03;;;;;;;38.50;22.10;;;;;;;19.14;85.12;99004.72;88067;1283;22563;-77
2022/08/24 03:11:54;;;;;;;;;;;;;;;;;;;;;
2022/08/24 03:13:57;;;;;;;41.70;21.70;;;;;;;19.14;85.30;99004.04;88447;1281;24247;-76
2022/08/24 03:16:29;;;;;;;37.30;21.60;;;;;;;19.14;85.22;99003.09;88432;1281;22583;-77
2022/08/24 03:18:38;;;;;;;30.90;20.60;;;;;;;19.15;85.17;99003.73;88412;1280;22754;-77
2022/08/24 03:20:42;;;;;;;37.50;20.60;;;;;;;19.14;85.33;99002.90;88977;1281;22585;-77
2022/08/24 03:22:48;;;;;;;41.10;21.60;;;;;;;19.14;85.22;98997.04;90153;1279;22601;-77
2022/08/24 03:25:30;;;;;;;;;;;;;;;;;;;;;
2022/08/24 03:28:33;;;;;;;35.90;21.30;;;;;;;19.14;85.36;98997.92;89289;1272;22598;-75
2022/08/24 03:31:03;;;;;;;42.60;23.10;;;;;;;19.14;85.25;99002.05;88925;1276;22683;-77
2022/08/24 03:33:25;;;;;;;44.70;24.20;;;;;;;19.14;85.39;98997.76;88988;1278;22589;-76
2022/08/24 03:35:47;;;;;;;42.20;23.60;;;;;;;19.14;85.42;98995.10;88988;1281;25267;-76
2022/08/24 03:38:02;;;;;;;42.60;24.40;;;;;;;19.13;85.29;98995.35;89233;1278;25400;-77
2022/08/24 03:40:09;;;;;;;52.10;25.30;;;;;;;19.12;85.32;98997.45;89088;1281;22600;-77
2022/08/24 03:42:41;;;;;;;41.80;24.10;;;;;;;19.12;85.41;98994.95;88993;1279;22624;-78
2022/08/24 03:45:47;;;;;;;54.90;24.40;;;;;;;19.11;85.46;98997.17;89023;1276;22683;-76
2022/08/24 03:51:52;;;;;;;48.50;25.10;;;;;;;19.08;85.55;98997.98;88814;1281;22519;-76
2022/08/24 03:54:54;;;;;;;46.30;25.40;;;;;;;19.07;85.45;99001.04;88014;1287;24260;-75
2022/08/24 03:57:57;;;;;;;50.00;26.40;;;;;;;19.07;85.53;98999.44;87940;1288;22674;-76
2022/08/24 04:04:03;;;;;;;54.80;27.10;;;;;;;19.06;85.60;98997.21;87247;1294;22817;-76
2022/08/24 04:06:47;;;;;;;;;;;;;;;;;;;;;
2022/08/24 04:09:50;;;;;;;58.40;27.30;;;;;;;19.04;85.66;98994.69;87424;1294;22801;-76
2022/08/24 04:15:53;;;;;;;57.70;28.10;;;;;;;19.01;85.73;98990.13;86231;1303;23836;-76
2022/08/24 04:21:59;;;;;;;70.00;30.80;;;;;;;18.99;85.69;98991.23;85586;1315;24269;-76
2022/08/24 04:25:02;;;;;;;67.80;33.00;;;;;;;18.99;85.72;98987.48;85351;1316;25523;-78
2022/08/24 04:28:02;;;;;;;71.10;32.90;;;;;;;18.98;85.78;98990.54;85281;1316;23240;-76
2022/08/24 04:31:04;;;;;;;85.50;33.50;;;;;;;18.99;85.75;98994.59;85632;1315;22767;-76
2022/08/24 04:34:04;;;;;;;70.00;32.60;;;;;;;19.00;85.83;98993.41;85717;1315;23442;-75
2022/08/24 04:37:01;;;;;;;73.30;34.00;;;;;;;19.02;85.76;98993.23;85689;1313;25201;-76
2022/08/24 04:40:02;;;;;;;75.60;34.10;;;;;;;19.03;85.82;98991.56;85619;1312;24454;-77
2022/08/24 04:42:53;;;;;;;;;;;;;;;;;;;;;
2022/08/24 04:45:40;;;;;;;72.10;34.20;;;;;;;19.06;85.88;98996.48;85771;1312;22633;-77
2022/08/24 04:48:43;;;;;;;72.20;32.30;;;;;;;19.08;85.91;98993.52;85109;1320;22636;-77
2022/08/24 04:51:31;;;;;;;69.90;34.20;;;;;;;19.08;85.88;98994.70;85404;1316;26243;-76
2022/08/24 04:54:03;;;;;;;77.50;34.90;;;;;;;19.09;85.97;98996.95;85072;1320;22920;-77
2022/08/24 04:59:26;;;;;;;73.30;33.50;;;;;;;19.12;85.99;98988.85;85798;1311;22706;-76
2022/08/24 05:01:40;;;;;;;70.10;32.40;;;;;;;19.14;85.87;98987.06;86011;1305;22712;-75
2022/08/24 05:03:56;;;;;;;75.60;32.90;;;;;;;19.16;85.97;98988.74;86051;1306;22612;-76
2022/08/24 05:06:56;;;;;;;;;;;;;;;;;;;;;
2022/08/24 05:13:07;;;;;;;76.70;33.20;;;;;;;19.21;85.95;98989.31;86916;1294;23401;-76
2022/08/24 05:16:08;;;;;;;66.90;31.90;;;;;;;19.25;85.90;98991.70;86745;1297;24331;-76
2022/08/24 05:19:07;;;;;;;63.50;29.20;;;;;;;19.27;85.91;98990.84;86495;1300;22603;-76
2022/08/24 05:22:08;;;;;;;71.20;30.90;;;;;;;19.31;85.95;98987.85;86524;1300;22706;-75
2022/08/24 05:24:10;;;;;;;62.30;30.60;;;;;;;19.35;85.88;98983.25;86528;1300;22580;-76
2022/08/24 05:26:17;;;;;;;57.70;27.90;;;;;;;19.36;85.94;98980.44;87086;1293;22854;-76
2022/08/24 05:29:22;;;;;;;55.20;27.90;;;;;;;19.39;85.88;98988.59;87226;1294;24643;-75
2022/08/24 05:31:50;;;;;;;60.50;28.70;;;;;;;19.43;85.98;98990.88;87308;1290;22591;-76
2022/08/24 05:34:21;;;;;;;;;;;;;;;;;;;;;
2022/08/24 05:37:13;;;;;;;;;;;;;;;;;;;;;
2022/08/24 05:40:16;;;;;;;;;;;;;;;;;;;;;
2022/08/24 05:43:09;;;;;;;53.90;25.50;;;;;;;19.59;85.84;99002.20;87285;1291;22528;-76
2022/08/24 05:48:47;;;;;;;;;;;;;;;;;;;;;
2022/08/24 05:51:31;;;;;;;48.70;24.60;;;;;;;19.72;85.63;99008.41;86335;1302;22698;-75
2022/08/24 05:54:23;;;;;;;47.90;24.60;;;;;;;19.76;85.72;99013.97;86171;1302;26944;-75
2022/08/24 05:57:15;;;;;;;51.00;24.40;;;;;;;19.80;85.57;99014.52;86588;1299;26777;-75
2022/08/24 05:59:50;;;;;;;52.50;24.70;;;;;;;19.84;85.59;99018.97;86525;1299;22629;-75
2022/08/24 06:01:52;;;;;;;46.30;24.20;;;;;;;19.88;85.57;99014.18;86922;1294;23801;-76
2022/08/24 06:04:26;;;;;;;53.30;24.90;;;;;;;19.93;85.56;99011.16;86890;1296;22548;-75
2022/08/24 06:07:13;;;;;;;47.30;23.70;;;;;;;19.96;85.57;99012.63;86960;1300;24195;-77
2022/08/24 06:10:17;;;;;;;47.00;22.70;;;;;;;20.02;85.42;99021.25;86919;1294;24256;-76
2022/08/24 06:12:39;;;;;;;48.90;21.30;;;;;;;20.06;85.40;99026.74;87157;1294;25816;-76
2022/08/24 06:14:44;;;;;;;35.50;20.20;;;;;;;20.11;85.31;99028.84;86810;1297;22592;-75
2022/08/24 06:16:57;;;;;;;44.80;19.40;;;;;;;20.15;85.40;99030.45;86779;1300;22827;-76
2022/08/24 06:19:42;;;;;;;41.20;19.70;;;;;;;20.18;85.21;99021.48;86895;1297;24414;-77
2022/08/24 06:21:54;;;;;;;42.40;19.70;;;;;;;20.21;85.20;99017.23;86681;1294;24241;-76
2022/08/24 06:23:58;;;;;;;35.70;19.40;;;;;;;20.25;85.11;99011.38;87306;1290;22576;-76
2022/08/24 06:29:28;;;;;;;45.50;18.80;;;;;;;20.33;85.17;99011.95;88181;1284;22623;-77
2022/08/24 06:31:56;;;;;;;50.80;18.70;;;;;;;20.36;85.02;99013.11;88092;1284;24426;-76
2022/08/24 06:34:00;;;;;;;48.00;19.10;;;;;;;20.37;84.97;99014.91;88129;1283;25542;-77
2022/08/24 06:36:06;;;;;;;34.80;17.20;;;;;;;20.40;85.01;99018.40;88341;1279;22723;-76
2022/08/24 06:39:09;;;;;;;;;;;;;;;;;;;;;
2022/08/24 06:41:53;;;;;;;33.40;18.30;;;;;;;20.48;84.96;99020.80;88626;1277;22515;-77
2022/08/24 06:44:37;;;;;;;48.90;19.20;;;;;;;20.50;84.97;99029.30;88737;1271;23017;-76
2022/08/24 06:46:42;;;;;;;39.40;16.50;;;;;;;20.51;85.00;99025.15;88751;1274;23578;-77
2022/08/24 06:48:53;;;;;;;32.10;17.10;;;;;;;20.55;84.94;99028.86;88848;1272;22724;-78
2022/08/24 06:51:36;;;;;;;39.20;16.90;;;;;;;20.56;84.82;99024.29;88820;1273;23673;-77
2022/08/24 06:53:58;;;;;;;31.20;15.40;;;;;;;20.58;84.80;99018.39;88761;1271;23825;-77
2022/08/24 06:56:21;;;;;;;41.80;16.70;;;;;;;20.62;84.71;99022.23;88568;1274;22624;-77
2022/08/24 06:58:34;;;;;;;35.10;15.90;;;;;;;20.64;84.75;99031.55;88543;1273;22616;-77
2022/08/24 07:01:06;;;;;;;33.20;15.80;;;;;;;20.66;84.70;99035.31;88733;1273;22627;-76
2022/08/24 07:03:27;;;;;;;47.10;16.90;;;;;;;20.64;84.64;99046.55;89234;1274;22802;-76
2022/08/24 07:05:31;;;;;;;;;;;;;;;20.62;84.51;99049.56;89014;1277;24240;-76
2022/08/24 07:08:34;;;;;;;32.30;15.70;;;;;;;20.58;84.53;99053.58;88442;1275;22610;-77
2022/08/24 07:10:56;;;;;;;37.70;15.70;;;;;;;20.58;84.53;99053.63;88566;1273;22715;-77
2022/08/24 07:12:58;;;;;;;35.90;15.50;;;;;;;20.56;84.50;99051.98;88591;1272;25237;-76
2022/08/24 07:15:09;;;;;;;40.00;15.80;;;;;;;20.57;84.61;99052.48;88467;1275;24242;-76
2022/08/24 07:17:11;;;;;;;42.80;17.80;;;;;;;20.61;84.65;99053.05;88545;1272;25328;-76
2022/08/24 07:19:22;;;;;;;44.40;19.10;;;;;;;20.64;84.72;99054.33;88447;1273;25268;-77
2022/08/24 07:21:25;;;;;;;44.70;21.20;;;;;;;20.68;84.71;99056.20;88736;1273;22618;-76
2022/08/24 07:23:37;;;;;;;46.20;20.20;;;;;;;20.69;84.61;99055.38;88776;1273;25145;-76
2022/08/24 07:26:02;;;;;;;53.00;22.60;;;;;;;20.68;84.54;99054.22;88720;1278;24294;-77
2022/08/24 07:28:40;;;;;;;;;;;;;;;;;;;;;
2022/08/24 07:31:47;;;;;;;55.20;22.20;;;;;;;20.68;84.65;99059.33;89197;1271;22575;-77
2022/08/24 07:33:35;;;;;;;47.40;21.90;;;;;;;20.69;84.67;99060.35;89048;1273;22576;-76
2022/08/24 07:35:59;;;;;;;43.70;21.00;;;;;;;20.72;84.66;99061.90;88933;1274;22559;-76
2022/08/24 07:38:54;;;;;;;;;;;;;;;;;;;;;
2022/08/24 07:41:36;;;;;;;44.20;20.70;;;;;;;20.75;84.53;99066.04;89409;1271;23886;-78
2022/08/24 07:43:50;;;;;;;45.30;19.70;;;;;;;20.77;84.59;99064.83;88585;1274;22562;-78
2022/08/24 07:46:37;;;;;;;48.90;18.90;;;;;;;20.79;84.54;99062.00;88754;1272;22504;-80
2022/08/24 07:48:38;;;;;;;46.50;19.80;;;;;;;20.83;84.58;99061.48;88824;1274;23332;-76
2022/08/24 07:50:44;;;;;;;48.00;20.40;;;;;;;20.86;84.64;99061.54;88363;1275;24340;-76
2022/08/24 07:53:35;;;;;;;;;;;;;;;;;;;;;
2022/08/24 07:55:50;;;;;;;38.20;19.50;;;;;;;20.92;84.45;99070.46;88575;1275;23022;-75
2022/08/24 07:58:10;;;;;;;39.80;19.50;;;;;;;20.91;84.39;99070.48;88658;1271;24225;-73
2022/08/24 08:00:31;;;;;;;40.70;19.60;;;;;;;20.94;84.43;99068.86;88763;1274;23360;-74
2022/08/24 08:02:39;;;;;;;42.00;18.30;;;;;;;20.97;84.47;99068.05;88784;1272;22557;-75
2022/08/24 08:04:41;;;;;;;37.00;18.00;;;;;;;21.02;84.42;99069.21;88714;1273;23058;-75
2022/08/24 08:07:45;;;;;;;36.20;17.60;;;;;;;21.07;84.43;99072.71;88617;1273;22621;-76
2022/08/24 08:10:44;;;;;;;48.30;18.90;;;;;;;21.17;84.44;99075.50;88790;1272;25790;-78
2022/08/24 08:13:04;;;;;;;;;;;;;;;;;;;;;
2022/08/24 08:16:08;;;;;;;42.70;18.00;;;;;;;21.36;84.39;99075.06;89287;1273;22497;-79
2022/08/24 08:18:45;;;;;;;51.00;18.30;;;;;;;21.46;84.17;99072.25;88826;1273;22716;-77
2022/08/24 08:24:13;;;;;;;34.10;18.40;;;;;;;21.54;84.10;99067.05;88819;1272;25234;-77
2022/08/24 08:26:46;;;;;;;36.10;15.30;;;;;;;21.69;83.86;99071.39;88811;1273;24451;-78
2022/08/24 08:29:09;;;;;;;;;;;;;;;;;;;;;
2022/08/24 08:31:27;;;;;;;36.30;16.70;;;;;;;21.76;83.61;99077.33;88964;1271;24233;-78
2022/08/24 08:33:49;;;;;;;;;;;;;;;;;;;;;
2022/08/24 08:36:39;;;;;;;44.00;16.70;;;;;;;21.79;83.53;99089.59;88939;1273;22615;-76
2022/08/24 08:39:24;;;;;;;;;;;;;;;;;;;;;
2022/08/24 08:42:39;;;;;;;;;;;;;;;;;;;;;
2022/08/24 08:45:45;;;;;;;29.70;16.40;;;;;;;21.96;83.56;99081.91;89122;1273;23842;-78
2022/08/24 08:48:51;;;;;;;;;;;;;;;;;;;;;
2022/08/24 08:52:07;;;;;;;47.50;16.40;;;;;;;22.22;83.56;99069.27;89351;1271;22540;-78
2022/08/24 08:54:32;;;;;;;39.40;17.00;;;;;;;22.42;83.44;99074.02;89093;1277;22572;-79
2022/08/24 08:56:44;;;;;;;32.50;16.40;;;;;;;22.53;83.19;99077.85;89235;1277;22668;-79
2022/08/24 09:00:03;;;;;;;39.50;17.10;;;;;;;22.59;83.03;99075.41;89561;1281;23035;-80
2022/08/24 09:02:45;;;;;;;;;;;;;;;;;;;;;
2022/08/24 09:06:09;;;;;;;;;;;;;;;;;;;;;
2022/08/24 09:09:09;;;;;;;;;;;;;;;;;;;;;
2022/08/24 09:12:07;;;;;;;41.60;15.90;;;;;;;22.59;82.66;99086.02;87462;1292;23598;-76
2022/08/24 09:15:20;;;;;;;37.00;16.20;;;;;;;22.59;82.78;99081.69;87370;1292;22585;-78
2022/08/24 09:18:07;;;;;;;36.90;15.90;;;;;;;22.54;82.75;99080.52;87344;1292;22587;-78
2022/08/24 09:20:38;;;;;;;44.30;16.70;;;;;;;22.49;82.61;99083.38;87105;1292;24709;-77
2022/08/24 09:24:15;;;;;;;;;;;;;;;;;;;;;
2022/08/24 09:26:50;;;;;;;38.40;15.60;;;;;;;22.42;82.66;99088.69;86458;1300;23079;-76
2022/08/24 09:30:10;;;;;;;;;;;;;;;;;;;;;
2022/08/24 09:32:31;;;;;;;42.10;15.40;;;;;;;22.37;82.64;99089.56;86159;1307;22605;-76
2022/08/24 09:34:59;;;;;;;36.30;15.70;;;;;;;22.35;82.56;99087.21;86176;1304;22616;-76
2022/08/24 09:37:59;;;;;;;39.20;16.00;;;;;;;22.36;82.60;99082.86;85943;1307;26092;-78
2022/08/24 09:40:50;;;;;;;59.00;15.70;;;;;;;22.42;82.52;99074.73;86664;1300;22712;-77
2022/08/24 09:43:59;;;;;;;59.00;16.70;;;;;;;22.49;82.38;99072.46;86686;1300;22672;-78
2022/08/24 09:46:29;;;;;;;51.50;16.50;;;;;;;22.51;82.32;99069.34;86801;1300;25584;-79
2022/08/24 09:52:29;;;;;;;37.10;16.00;;;;;;;22.74;82.32;99058.23;87204;1296;26802;-78
2022/08/24 09:55:14;;;;;;;41.70;16.30;;;;;;;22.86;82.13;99052.93;87274;1296;22679;-77
2022/08/24 09:57:37;;;;;;;42.20;16.10;;;;;;;23.01;81.99;99050.60;87187;1296;22826;-76
2022/08/24 10:00:50;;;;;;;40.10;15.70;;;;;;;23.19;81.82;99059.08;87009;1294;25526;-77
2022/08/24 10:03:08;;;;;;;39.50;14.30;;;;;;;23.58;82.16;99056.19;87418;1294;22583;-77
2022/08/24 10:06:13;;;;;;;40.40;14.30;;;;;;;23.85;81.70;99046.82;87455;1294;22745;-78
2022/08/24 10:09:18;;;;;;;;;;;;;;;;;;;;;
2022/08/24 10:12:41;;;;;;;51.00;15.90;;;;;;;24.07;81.15;99047.89;87862;1285;24603;-77
2022/08/24 10:15:28;;;;;;;40.00;15.40;;;;;;;24.07;80.65;99052.36;87805;1285;98963;-78
2022/08/24 10:18:41;;;;;;;47.20;16.50;;;;;;;24.05;80.73;99058.15;87863;1287;23808;-77
2022/08/24 10:21:36;;;;;;;;;;;;;;;;;;;;;
2022/08/24 10:24:57;;;;;;;34.20;13.90;;;;;;;24.03;80.48;99063.31;87440;1292;22608;-78
2022/08/24 10:30:59;;;;;;;40.20;15.20;;;;;;;23.94;80.52;99065.18;87563;1292;23398;-78
2022/08/24 10:34:03;;;;;;;55.70;13.80;;;;;;;23.91;80.59;99064.05;87346;1294;100002;-77
2022/08/24 10:37:11;;;;;;;52.10;14.50;;;;;;;23.91;80.35;99069.94;87276;1292;22585;-77
2022/08/24 10:40:14;;;;;;;31.50;13.40;;;;;;;23.90;80.40;99067.91;86824;1295;98280;-77
2022/08/24 10:46:44;;;;;;;33.40;12.70;;;;;;;23.90;80.43;99065.15;87187;1293;22557;-77
2022/08/24 10:49:46;;;;;;;;;;;;;;;;;;;;;
2022/08/24 10:52:57;;;;;;;40.30;12.50;;;;;;;23.88;80.38;99063.95;86870;1299;22752;-78
2022/08/24 10:56:03;;;;;;;46.60;12.10;;;;;;;23.87;80.20;99064.05;86457;1306;26261;-78
2022/08/24 10:59:23;;;;;;;;;;;;;;;;;;;;;
2022/08/24 11:01:59;;;;;;;43.70;14.00;;;;;;;23.81;79.88;99065.93;86706;1303;22832;-77
2022/08/24 11:04:50;;;;;;;44.60;13.80;;;;;;;23.77;80.09;99063.24;86726;1300;22638;-77
2022/08/24 11:08:05;;;;;;;48.00;13.40;;;;;;;23.76;80.05;99060.50;86249;1309;22634;-76
2022/08/24 11:11:07;;;;;;;;;;;;;;;;;;;;;
2022/08/24 11:14:14;;;;;;;43.10;17.30;;;;;;;23.66;80.05;99056.36;86372;1307;23797;-77
2022/08/24 11:17:23;;;;;;;40.90;16.00;;;;;;;23.63;80.06;99057.83;86500;1299;22590;-77
2022/08/24 11:20:30;;;;;;;44.20;16.10;;;;;;;23.68;80.53;99058.46;86389;1303;22750;-78
2022/08/24 11:23:46;;;;;;;69.30;15.60;;;;;;;23.86;80.36;99047.60;86394;1303;22668;-77
2022/08/24 11:26:59;;;;;;;70.70;15.10;;;;;;;24.11;80.19;99041.20;86050;1309;99450;-78
2022/08/24 11:29:46;;;;;;;;;;;;;;;;;;;;;
2022/08/24 11:32:41;;;;;;;50.90;12.60;;;;;;;24.57;79.68;99028.41;85657;1314;99550;-78
2022/08/24 11:35:34;;;;;;;;;;;;;;;;;;;;;
2022/08/24 11:51:52;;;;;;;78.90;12.20;;;;;;;25.05;78.22;99042.12;85139;1321;99161;-78
2022/08/24 11:54:55;;;;;;;85.70;12.10;;;;;;;25.01;77.94;99041.77;84603;1327;22648;-77
2022/08/24 11:58:03;;;;;;;56.10;9.60;;;;;;;25.06;77.82;99040.96;84649;1326;100867;-77
2022/08/24 12:03:46;;;;;;;64.90;10.30;;;;;;;25.13;77.42;99038.58;86439;1303;542957;-76
2022/08/24 12:06:13;;;;;;;53.40;9.50;;;;;;;25.12;77.52;99035.34;88215;1286;22722;-76
2022/08/24 12:08:26;;;;;;;52.90;10.00;;;;;;;25.15;77.48;99038.45;88165;1286;98605;-75
2022/08/24 12:10:31;;;;;;;66.80;11.30;;;;;;;25.19;77.31;99036.30;88085;1286;24256;-77
2022/08/24 12:12:42;;;;;;;45.30;10.80;;;;;;;25.23;77.48;99038.00;88246;1284;23288;-76
2022/08/24 12:14:54;;;;;;;44.30;11.20;;;;;;;25.26;77.49;99036.23;88015;1286;100235;-77
2022/08/24 12:17:03;;;;;;;44.30;12.40;;;;;;;25.29;77.46;99042.84;87558;1286;1517863;-76
2022/08/24 12:19:45;;;;;;;47.70;11.00;;;;;;;25.35;77.51;99042.34;88362;1283;26052;-75
2022/08/24 12:21:52;;;;;;;44.90;12.20;;;;;;;25.39;77.25;99042.65;88641;1277;22623;-76
2022/08/24 12:24:11;;;;;;;47.20;11.20;;;;;;;25.39;77.22;99040.12;88685;1280;24307;-77
2022/08/24 12:26:25;;;;;;;46.60;10.00;;;;;;;25.43;77.12;99036.73;88636;1276;99658;-76
2022/08/24 12:28:49;;;;;;;63.50;10.90;;;;;;;25.45;76.85;99035.48;88806;1277;22752;-77
2022/08/24 12:30:53;;;;;;;48.70;9.90;;;;;;;25.47;77.05;99034.36;88857;1277;22698;-79
2022/08/24 12:33:04;;;;;;;52.30;11.60;;;;;;;25.50;76.81;99038.64;88764;1277;97397;-76
2022/08/24 12:35:37;;;;;;;64.70;12.10;;;;;;;25.51;76.73;99036.02;88583;1277;23720;-77
2022/08/24 12:37:51;;;;;;;58.60;12.40;;;;;;;25.47;76.50;99035.04;88721;1277;22636;-76
2022/08/24 12:40:30;;;;;;;59.40;12.80;;;;;;;25.46;76.70;99036.55;88808;1277;22577;-75
2022/08/24 12:42:49;;;;;;;55.00;10.40;;;;;;;25.50;76.87;99037.60;88668;1277;22559;-77
2022/08/24 12:45:07;;;;;;;66.40;11.50;;;;;;;25.56;76.85;99036.95;88532;1280;99357;-75
2022/08/24 12:47:10;;;;;;;61.30;11.00;;;;;;;25.66;76.62;99033.33;88696;1277;22555;-74
2022/08/24 12:49:25;;;;;;;65.40;10.90;;;;;;;25.74;76.28;99032.63;88496;1277;22693;-74
2022/08/24 12:51:43;;;;;;;50.90;10.40;;;;;;;25.82;76.40;99030.52;88529;1277;98813;-75
2022/08/24 12:53:51;;;;;;;55.10;10.00;;;;;;;25.87;76.00;99027.30;88620;1277;22620;-73
2022/08/24 12:56:30;;;;;;;68.50;10.90;;;;;;;25.86;75.79;99029.30;88618;1277;97998;-75
2022/08/24 12:59:25;;;;;;;44.20;10.50;;;;;;;25.86;75.67;99024.60;88822;1277;23520;-77
2022/08/24 13:01:34;;;;;;;50.00;10.10;;;;;;;25.89;75.81;99022.38;88500;1283;25562;-75
2022/08/24 13:03:42;;;;;;;68.40;11.50;;;;;;;25.91;75.91;99023.01;88111;1284;98654;-77
2022/08/24 13:05:49;;;;;;;51.20;11.10;;;;;;;25.93;75.86;99024.97;88736;1281;22780;-78
2022/08/24 13:08:07;;;;;;;58.20;10.60;;;;;;;25.95;75.86;99026.55;88142;1285;98999;-77
2022/08/24 13:10:34;;;;;;;56.20;10.60;;;;;;;25.95;75.62;99026.58;88288;1283;25121;-79
2022/08/24 13:12:44;;;;;;;55.70;10.10;;;;;;;25.92;75.36;99028.68;88309;1283;22577;-77
2022/08/24 13:14:49;;;;;;;42.90;9.90;;;;;;;25.84;75.47;99026.27;88319;1283;99472;-77
2022/08/24 13:17:00;;;;;;;59.60;10.80;;;;;;;25.75;75.63;99018.88;88062;1285;22726;-78
2022/08/24 13:19:16;;;;;;;65.40;11.10;;;;;;;25.70;75.55;99017.06;88413;1282;22680;-77
2022/08/24 13:21:39;;;;;;;51.10;10.70;;;;;;;25.66;75.58;99014.31;88590;1283;98848;-76
2022/08/24 13:23:41;;;;;;;50.40;10.60;;;;;;;25.63;75.61;99009.52;88973;1284;22868;-75
2022/08/24 13:25:45;;;;;;;62.60;10.30;;;;;;;25.63;75.52;99005.40;88293;1283;24139;-77
2022/08/24 13:28:07;;;;;;;56.20;10.60;;;;;;;25.63;75.62;98999.63;88387;1283;22583;-76
2022/08/24 13:30:24;;;;;;;49.20;9.50;;;;;;;25.63;75.43;98996.72;88430;1283;24258;-74
2022/08/24 13:32:44;;;;;;;58.70;10.00;;;;;;;25.63;75.38;98990.25;88526;1283;98750;-77
2022/08/24 13:34:56;;;;;;;78.40;13.20;;;;;;;25.62;75.41;98990.92;88500;1281;22593;-85
2022/08/24 13:37:09;;;;;;;78.10;12.20;;;;;;;25.60;75.35;98990.05;89055;1282;22580;-78
2022/08/24 13:39:49;;;;;;;64.40;12.40;;;;;;;25.56;75.33;98987.09;89328;1277;98637;-82
2022/08/24 13:42:28;;;;;;;59.90;11.40;;;;;;;25.50;75.29;98988.85;89613;1276;22679;-76